Time;durP1;ratioP1;P1;durP2;ratioP2;P2;SDS_P1;SDS_P2;PMS_P1;PMS_P2;Temp;Humidity;BMP_temperature;BMP_pressure;BME280_temperature;BME280_humidity;BME280_pressure;Samples;Min_cycle;Max_cycle;Signal;HPM_P1;HPM_P2
2023/03/08 00:02:13;;;;;;;;;6.00;5.00;;;;;21.80;30.68;99268.72;5066773;27;45295;-76
2023/03/08 00:04:38;;;;;;;;;5.50;4.00;;;;;21.81;30.66;99265.06;5076239;27;68888;-76
2023/03/08 00:07:03;;;;;;;;;7.50;6.00;;;;;21.81;30.69;99259.72;5076802;27;50492;-76
2023/03/08 00:09:29;;;;;;;;;7.25;5.00;;;;;21.78;30.94;99246.75;5067827;27;72403;-76
2023/03/08 00:11:54;;;;;;;;;6.00;6.00;;;;;21.80;30.68;99250.09;5070248;27;62309;-77
2023/03/08 00:14:21;;;;;;;;;3.75;3.75;;;;;21.79;30.70;99249.22;5064467;28;66729;-76
2023/03/08 00:16:46;;;;;;;;;5.25;5.25;;;;;21.79;30.97;99246.56;5061277;28;45662;-76
2023/03/08 00:19:12;;;;;;;;;5.00;4.75;;;;;21.77;31.08;99243.22;5065363;27;45500;-75
2023/03/08 00:21:38;;;;;;;;;4.00;4.00;;;;;21.78;31.15;99236.91;5064047;27;45306;-76
2023/03/08 00:24:04;;;;;;;;;7.00;6.00;;;;;21.77;30.82;99234.41;5064064;28;45747;-76
2023/03/08 00:26:29;;;;;;;;;7.00;4.25;;;;;21.77;30.74;99235.22;5048262;28;45347;-76
2023/03/08 00:28:54;;;;;;;;;7.50;5.00;;;;;21.70;31.06;99222.69;5076059;28;46308;-76
2023/03/08 00:31:20;;;;;;;;;5.00;4.00;;;;;21.74;30.59;99222.25;5057711;28;45747;-76
2023/03/08 00:33:45;;;;;;;;;5.50;5.25;;;;;21.73;30.70;99212.56;5088788;27;45296;-76
2023/03/08 00:36:14;;;;;;;;;5.25;3.75;;;;;21.75;30.73;99215.06;5056532;28;45351;-75
2023/03/08 00:38:39;;;;;;;;;4.75;4.75;;;;;21.71;31.28;99205.69;5072133;27;46195;-76
2023/03/08 00:41:05;;;;;;;;;6.00;5.50;;;;;21.73;30.84;99195.75;5073474;28;45796;-76
2023/03/08 00:43:30;;;;;;;;;8.00;4.75;;;;;21.73;30.88;99198.41;5073423;27;45323;-76
2023/03/08 00:45:56;;;;;;;;;8.00;5.00;;;;;21.71;31.00;99184.41;5069278;28;45257;-76
2023/03/08 00:48:30;;;;;;;;;4.75;4.75;;;;;21.69;30.96;99179.25;5078941;27;68937;-76
2023/03/08 00:50:56;;;;;;;;;3.50;3.50;;;;;21.70;31.08;99172.09;5062605;28;45989;-76
2023/03/08 00:53:21;;;;;;;;;5.25;5.25;;;;;21.71;31.28;99166.63;5073641;28;69302;-76
2023/03/08 00:55:50;;;;;;;;;7.00;7.00;;;;;21.72;31.44;99146.13;5077182;27;65160;-76
2023/03/08 00:58:16;;;;;;;;;8.50;5.00;;;;;21.69;30.97;99141.97;5065498;28;46984;-76
2023/03/08 01:00:42;;;;;;;;;8.50;5.00;;;;;21.68;31.17;99126.16;5075536;27;45441;-76
2023/03/08 01:03:07;;;;;;;;;4.75;4.00;;;;;21.68;31.03;99120.81;5075085;28;45262;-76
2023/03/08 01:05:33;;;;;;;;;4.00;4.00;;;;;21.69;31.18;99122.47;5067380;27;45300;-76
2023/03/08 01:07:58;;;;;;;;;5.75;4.00;;;;;21.68;31.02;99110.16;5076679;27;59784;-76
2023/03/08 01:10:23;;;;;;;;;5.00;4.00;;;;;21.70;31.22;99103.69;5075128;28;45578;-76
2023/03/08 01:12:49;;;;;;;;;5.00;3.00;;;;;21.67;31.34;99090.69;5043216;28;45457;-76
2023/03/08 01:15:14;;;;;;;;;5.50;5.50;;;;;21.66;31.09;99074.88;5071063;27;72626;-76
2023/03/08 01:17:40;;;;;;;;;6.00;6.00;;;;;21.66;31.36;99086.34;5076703;28;63858;-75
2023/03/08 01:20:06;;;;;;;;;5.00;4.50;;;;;21.68;31.25;99088.88;5067457;27;45504;-76
2023/03/08 01:22:32;;;;;;;;;5.00;5.00;;;;;21.66;30.96;99078.38;5071646;27;45432;-76
2023/03/08 01:24:57;;;;;;;;;3.75;3.75;;;;;21.64;31.48;99058.19;5077001;27;45449;-76
2023/03/08 01:27:22;;;;;;;;;3.50;3.50;;;;;21.66;30.92;99062.41;5071379;28;57791;-76
2023/03/08 01:29:48;;;;;;;;;6.50;5.75;;;;;21.67;30.86;99049.91;5087871;27;62815;-76
2023/03/08 01:32:13;;;;;;;;;6.75;4.50;;;;;21.65;31.08;99051.91;5073376;28;46778;-76
2023/03/08 01:34:38;;;;;;;;;6.00;4.50;;;;;21.65;31.07;99047.41;5068704;28;45335;-77
2023/03/08 01:37:04;;;;;;;;;5.00;3.75;;;;;21.65;31.33;99035.94;5068723;28;74607;-77
2023/03/08 01:39:30;;;;;;;;;4.00;4.00;;;;;21.60;31.16;99017.75;5065935;28;45501;-76
2023/03/08 01:41:56;;;;;;;;;5.00;4.00;;;;;21.59;31.24;99024.91;5067643;28;45481;-76
2023/03/08 01:44:21;;;;;;;;;4.50;4.50;;;;;21.61;31.44;99017.59;5072985;27;45488;-76
2023/03/08 01:46:47;;;;;;;;;4.75;4.00;;;;;21.61;31.01;99008.78;5078257;28;45492;-76
2023/03/08 01:49:16;;;;;;;;;6.25;5.00;;;;;21.60;31.57;98996.44;5066141;27;45368;-76
2023/03/08 01:52:17;;;;;;;;;4.25;4.00;;;;;21.61;30.85;99008.78;5062411;28;45332;-76
2023/03/08 01:54:47;;;;;;;;;3.75;3.50;;;;;21.59;31.05;98997.44;5068387;27;45468;-76
2023/03/08 01:57:17;;;;;;;;;3.00;3.00;;;;;21.57;31.34;98986.13;5078577;27;45385;-76
2023/03/08 01:59:43;;;;;;;;;4.25;2.75;;;;;21.52;31.16;98978.59;5076196;28;45866;-76
2023/03/08 02:02:09;;;;;;;;;3.25;3.00;;;;;21.58;31.40;98987.78;5078758;28;45308;-77
2023/03/08 02:04:34;;;;;;;;;5.75;3.75;;;;;21.57;31.41;98972.81;5061517;27;45751;-76
2023/03/08 02:07:00;;;;;;;;;4.00;4.00;;;;;21.58;31.05;98985.97;5066611;28;46560;-76
2023/03/08 02:09:25;;;;;;;;;4.00;3.00;;;;;21.57;31.10;98970.97;5077938;27;72318;-76
2023/03/08 02:11:51;;;;;;;;;3.50;3.50;;;;;21.55;31.17;98956.19;5077200;28;46293;-77
2023/03/08 02:14:29;;;;;;;;;4.00;4.00;;;;;21.54;30.82;98950.00;5066367;27;45326;-76
2023/03/08 02:16:55;;;;;;;;;3.25;3.25;;;;;21.54;31.08;98947.34;5074695;28;45607;-77
2023/03/08 02:19:50;;;;;;;;;8.00;5.00;;;;;21.54;31.38;98934.03;5059051;28;64923;-77
2023/03/08 02:22:17;;;;;;;;;2.00;2.00;;;;;21.53;31.42;98940.34;5046466;28;45318;-77
2023/03/08 02:24:42;;;;;;;;;4.75;4.00;;;;;21.55;31.31;98929.56;5078874;27;61550;-77
2023/03/08 02:27:13;;;;;;;;;6.25;3.50;;;;;21.54;30.93;98922.56;5076386;28;50061;-76
2023/03/08 02:29:38;;;;;;;;;3.00;3.00;;;;;21.55;31.55;98910.94;5067805;28;45417;-76
2023/03/08 02:32:04;;;;;;;;;4.00;4.00;;;;;21.47;31.61;98898.38;5072374;28;45335;-76
2023/03/08 02:34:29;;;;;;;;;4.00;2.25;;;;;21.54;31.62;98893.28;5077794;27;45553;-76
2023/03/08 02:36:55;;;;;;;;;4.75;4.00;;;;;21.52;31.08;98877.47;5060336;28;46762;-76
2023/03/08 02:39:20;;;;;;;;;2.25;2.25;;;;;21.50;31.29;98874.13;5064670;28;45473;-76
2023/03/08 02:41:45;;;;;;;;;4.50;4.00;;;;;21.51;31.17;98869.63;5078796;27;69430;-76
2023/03/08 02:44:12;;;;;;;;;6.50;5.00;;;;;21.47;31.43;98852.31;5070195;28;45381;-76
2023/03/08 02:46:37;;;;;;;;;5.25;4.50;;;;;21.48;31.03;98849.50;5076307;27;45207;-76
2023/03/08 02:49:02;;;;;;;;;3.00;3.00;;;;;21.48;31.56;98848.63;5078031;28;45244;-76
2023/03/08 02:51:31;;;;;;;;;5.25;4.00;;;;;21.51;31.46;98849.16;5066909;27;45197;-76
2023/03/08 02:53:59;;;;;;;;;6.00;3.50;;;;;21.47;31.21;98839.84;5073993;27;73114;-76
2023/03/08 02:56:28;;;;;;;;;2.00;2.00;;;;;21.48;31.55;98844.19;5058054;28;47292;-77
2023/03/08 02:58:57;;;;;;;;;3.75;3.00;;;;;21.47;31.16;98823.03;5075979;28;45712;-77
2023/03/08 03:01:22;;;;;;;;;4.75;4.00;;;;;21.50;31.32;98817.41;5063888;28;45390;-77
2023/03/08 03:03:48;;;;;;;;;3.00;3.00;;;;;21.47;31.49;98788.44;5076157;27;63941;-76
2023/03/08 03:06:15;;;;;;;;;5.00;3.25;;;;;21.47;31.43;98778.63;5061396;28;48286;-76
2023/03/08 03:08:40;;;;;;;;;3.00;1.00;;;;;21.49;31.83;98773.16;5062428;28;45307;-76
2023/03/08 03:11:14;;;;;;;;;5.75;4.00;;;;;21.46;31.17;98770.78;5073488;28;53625;-75
2023/03/08 03:13:39;;;;;;;;;6.00;4.50;;;;;21.48;31.60;98750.16;5080214;27;45425;-76
2023/03/08 03:16:07;;;;;;;;;4.75;4.00;;;;;21.46;31.25;98737.06;5067158;28;72426;-76
2023/03/08 03:18:32;;;;;;;;;3.50;3.00;;;;;21.48;31.25;98734.19;5079567;28;46308;-76
2023/03/08 03:21:02;;;;;;;;;3.75;3.75;;;;;21.48;31.34;98723.56;5074797;27;63846;-75
2023/03/08 03:23:28;;;;;;;;;5.00;4.00;;;;;21.43;31.98;98708.06;5062198;28;45373;-76
2023/03/08 03:25:53;;;;;;;;;3.00;3.00;;;;;21.43;31.25;98714.22;5078733;28;47564;-76
2023/03/08 03:28:18;;;;;;;;;3.00;3.00;;;;;21.46;31.49;98721.09;5066705;27;73020;-76
2023/03/08 03:30:44;;;;;;;;;3.50;3.50;;;;;21.40;31.66;98701.22;5073453;27;61351;-76
2023/03/08 03:33:09;;;;;;;;;3.75;3.00;;;;;21.42;31.65;98691.28;5060615;28;69912;-76
2023/03/08 03:35:37;;;;;;;;;4.00;3.00;;;;;21.41;31.64;98672.81;5066097;28;72008;-76
2023/03/08 03:38:02;;;;;;;;;2.00;2.00;;;;;21.43;31.37;98668.16;5067564;28;45328;-76
2023/03/08 03:40:27;;;;;;;;;4.25;3.25;;;;;21.45;31.23;98679.47;5073405;27;65959;-76
2023/03/08 03:42:53;;;;;;;;;2.50;2.50;;;;;21.43;31.24;98660.97;5069252;27;66868;-76
2023/03/08 03:45:18;;;;;;;;;4.50;3.75;;;;;21.45;31.69;98634.22;5076776;27;61006;-76
2023/03/08 03:47:43;;;;;;;;;2.75;2.75;;;;;21.44;31.64;98643.19;5061760;28;58455;-76
2023/03/08 03:50:09;;;;;;;;;4.00;2.25;;;;;21.43;31.51;98630.88;5069891;28;45259;-76
2023/03/08 03:52:35;;;;;;;;;4.50;3.75;;;;;21.42;31.72;98619.41;5071647;27;45333;-76
2023/03/08 03:55:00;;;;;;;;;5.00;4.00;;;;;21.37;31.39;98613.75;5075190;27;72805;-76
2023/03/08 03:57:25;;;;;;;;;2.00;2.00;;;;;21.41;31.38;98612.41;5073308;27;66852;-76
2023/03/08 03:59:51;;;;;;;;;3.50;3.25;;;;;21.40;31.88;98605.41;5069221;27;45489;-76
2023/03/08 04:02:16;;;;;;;;;5.75;3.75;;;;;21.40;31.28;98594.78;5077932;27;65698;-76
2023/03/08 04:04:41;;;;;;;;;1.75;1.75;;;;;21.39;31.33;98594.97;5074364;27;71691;-76
2023/03/08 04:07:07;;;;;;;;;4.00;4.00;;;;;21.37;32.00;98589.81;5064569;28;55721;-76
2023/03/08 04:09:34;;;;;;;;;2.50;2.50;;;;;21.41;31.41;98595.63;5071529;27;45452;-76
2023/03/08 04:12:04;;;;;;;;;2.00;2.00;;;;;21.39;31.74;98587.81;5055955;28;45357;-76
2023/03/08 04:14:29;;;;;;;;;2.50;2.25;;;;;21.39;31.49;98584.31;5064881;28;46039;-76
2023/03/08 04:16:55;;;;;;;;;4.50;2.00;;;;;21.36;31.50;98568.69;5069762;27;49943;-76
2023/03/08 04:19:20;;;;;;;;;2.25;2.25;;;;;21.38;31.46;98570.16;5079089;27;45948;-76
2023/03/08 04:21:45;;;;;;;;;3.50;2.00;;;;;21.36;31.68;98568.69;5077868;27;68528;-76
2023/03/08 04:24:10;;;;;;;;;4.00;2.00;;;;;21.36;31.81;98556.19;5062169;28;73439;-76
2023/03/08 04:26:36;;;;;;;;;1.00;1.00;;;;;21.29;31.88;98533.91;5070814;27;65794;-76
2023/03/08 04:29:05;;;;;;;;;3.00;2.25;;;;;21.33;31.83;98545.06;5078778;27;45353;-76
2023/03/08 04:31:33;;;;;;;;;4.75;1.75;;;;;21.37;31.91;98543.72;5070239;27;55950;-76
2023/03/08 04:33:59;;;;;;;;;2.00;2.00;;;;;21.30;31.36;98501.00;5071580;27;45309;-76
2023/03/08 04:36:24;;;;;;;;;3.00;2.00;;;;;21.34;31.43;98475.72;5063988;28;45232;-76
2023/03/08 04:38:50;;;;;;;;;3.00;3.00;;;;;21.33;31.96;98503.31;5048773;28;55249;-76
2023/03/08 04:41:16;;;;;;;;;2.00;2.00;;;;;21.37;31.79;98498.50;5059672;28;45554;-76
2023/03/08 04:43:52;;;;;;;;;3.75;3.00;;;;;21.37;31.55;98507.31;5077095;27;46195;-76
2023/03/08 04:46:20;;;;;;;;;3.75;2.00;;;;;21.40;31.76;98483.03;5077021;28;45383;-76
2023/03/08 04:48:46;;;;;;;;;3.25;2.00;;;;;21.41;31.91;98505.16;5050280;28;45469;-76
2023/03/08 04:51:13;;;;;;;;;1.75;1.00;;;;;21.42;32.03;98473.06;5074407;28;68647;-76
2023/03/08 04:53:40;;;;;;;;;1.00;1.00;;;;;21.44;31.89;98499.50;5076796;27;45253;-76
2023/03/08 04:56:06;;;;;;;;;1.75;1.75;;;;;21.46;31.51;98488.72;5078544;27;45332;-76
2023/03/08 04:58:32;;;;;;;;;1.00;1.00;;;;;21.44;31.82;98459.56;5070374;28;45473;-76
2023/03/08 05:00:58;;;;;;;;;1.50;1.00;;;;;21.48;31.75;98470.75;5077341;27;45341;-76
2023/03/08 05:03:24;;;;;;;;;2.25;2.00;;;;;21.49;31.62;98475.06;5079321;27;45431;-76
2023/03/08 05:05:51;;;;;;;;;3.25;1.75;;;;;21.50;31.63;98458.13;5066912;28;45295;-76
2023/03/08 05:08:17;;;;;;;;;3.00;2.00;;;;;21.53;31.93;98477.25;5062508;28;45312;-76
2023/03/08 05:11:01;;;;;;;;;1.00;1.00;;;;;21.55;31.66;98469.94;5066711;27;53917;-76
2023/03/08 05:13:30;;;;;;;;;2.00;2.00;;;;;21.54;32.03;98462.94;5073702;27;46512;-76
2023/03/08 05:15:55;;;;;;;;;2.00;1.25;;;;;21.55;31.99;98459.28;5079862;28;45582;-76
2023/03/08 05:18:21;;;;;;;;;1.00;1.00;;;;;21.54;31.62;98446.13;5062063;28;45359;-76
2023/03/08 05:20:58;;;;;;;;;1.50;1.00;;;;;21.56;31.56;98447.63;5078874;28;55578;-76
2023/03/08 05:23:24;;;;;;;;;1.75;1.25;;;;;21.55;31.88;98438.00;5065533;27;46172;-76
2023/03/08 05:25:55;;;;;;;;;1.25;0.50;;;;;21.53;32.11;98432.00;5067065;28;45741;-76
2023/03/08 05:28:22;;;;;;;;;3.50;2.00;;;;;21.57;32.24;98449.28;5072096;28;45319;-76
2023/03/08 05:30:47;;;;;;;;;1.75;1.00;;;;;21.57;31.69;98446.63;5080842;27;45353;-76
2023/03/08 05:33:14;;;;;;;;;1.00;1.00;;;;;21.54;32.20;98431.00;5051354;28;46930;-76
2023/03/08 05:35:40;;;;;;;;;2.50;1.00;;;;;21.58;32.22;98416.38;5078182;27;45824;-76
2023/03/08 05:38:05;;;;;;;;;1.00;1.00;;;;;21.55;31.84;98416.69;5080493;27;45168;-76
2023/03/08 05:40:30;;;;;;;;;1.75;1.25;;;;;21.54;32.07;98432.84;5086009;27;65108;-76
2023/03/08 05:42:56;;;;;;;;;1.25;1.25;;;;;21.53;31.92;98440.00;5065687;28;61777;-76
2023/03/08 05:45:21;;;;;;;;;2.25;2.00;;;;;21.58;31.86;98423.50;5071307;27;45640;-76
2023/03/08 05:47:46;;;;;;;;;1.00;1.00;;;;;21.56;32.17;98431.66;5067867;28;53006;-76
2023/03/08 05:50:12;;;;;;;;;1.00;1.00;;;;;21.55;32.30;98415.88;5073412;28;69501;-76
2023/03/08 05:52:37;;;;;;;;;1.00;1.00;;;;;21.57;32.22;98416.53;5067313;27;46096;-76
2023/03/08 05:55:04;;;;;;;;;1.00;1.00;;;;;21.57;32.30;98437.81;5053365;28;45681;-76
2023/03/08 05:57:29;;;;;;;;;2.75;2.00;;;;;21.55;32.30;98423.88;5069635;28;45393;-76
2023/03/08 05:59:54;;;;;;;;;1.25;1.00;;;;;21.57;32.14;98427.19;5072516;27;45453;-77
2023/03/08 06:02:20;;;;;;;;;0.75;0.75;;;;;21.53;32.34;98418.69;5074431;27;53037;-76
2023/03/08 06:04:45;;;;;;;;;0.75;0.75;;;;;21.57;31.89;98417.34;5075168;28;47653;-76
2023/03/08 06:07:13;;;;;;;;;1.00;1.00;;;;;21.58;32.08;98442.97;5070485;28;69249;-76
2023/03/08 06:09:38;;;;;;;;;1.00;1.00;;;;;21.59;32.34;98415.34;5068216;28;55563;-76
2023/03/08 06:12:04;;;;;;;;;1.00;1.00;;;;;21.55;31.95;98390.09;5075761;27;50304;-76
2023/03/08 06:14:29;;;;;;;;;0.00;0.00;;;;;21.61;32.46;98458.59;5078461;27;45402;-77
2023/03/08 06:16:54;;;;;;;;;1.00;1.00;;;;;21.59;32.24;98423.34;5057266;28;59262;-76
2023/03/08 06:19:20;;;;;;;;;1.00;1.00;;;;;21.63;32.23;98433.66;5054523;28;71403;-76
2023/03/08 06:21:45;;;;;;;;;1.00;1.00;;;;;21.64;31.98;98443.28;5071347;28;45637;-76
2023/03/08 06:24:10;;;;;;;;;1.00;0.50;;;;;21.63;32.12;98461.09;5068806;28;61685;-76
2023/03/08 06:26:36;;;;;;;;;0.50;0.50;;;;;21.66;32.09;98446.63;5073437;27;62913;-77
2023/03/08 06:29:01;;;;;;;;;0.00;0.00;;;;;21.69;31.91;98467.56;5068249;28;45591;-76
2023/03/08 06:31:27;;;;;;;;;1.00;1.00;;;;;21.62;32.15;98443.47;5058300;28;47255;-78
2023/03/08 06:33:52;;;;;;;;;1.00;1.00;;;;;21.73;32.27;98463.59;5072621;28;45881;-72
2023/03/08 06:36:19;;;;;;;;;1.50;1.50;;;;;21.73;32.12;98472.41;5068671;28;69705;-80
2023/03/08 06:38:45;;;;;;;;;1.00;1.00;;;;;21.66;32.18;98457.28;5076978;28;45498;-84
2023/03/08 06:41:12;;;;;;;;;1.00;1.00;;;;;21.68;32.27;98472.06;5064026;27;47464;-81
2023/03/08 06:43:37;;;;;;;;;1.50;1.50;;;;;21.71;32.29;98463.75;5067770;28;45340;-76
2023/03/08 06:46:05;;;;;;;;;1.00;1.00;;;;;21.72;32.35;98461.91;5069473;27;68191;-75
2023/03/08 06:48:30;;;;;;;;;1.00;1.00;;;;;21.65;32.46;98461.75;5050946;28;45674;-75
2023/03/08 06:50:56;;;;;;;;;1.25;1.00;;;;;21.70;32.69;98467.41;5080280;27;47438;-75
2023/03/08 06:53:21;;;;;;;;;0.00;0.00;;;;;21.66;32.67;98454.63;5077895;27;45492;-75
2023/03/08 06:55:46;;;;;;;;;1.00;1.00;;;;;21.73;32.47;98455.59;5073624;28;49611;-76
2023/03/08 06:58:12;;;;;;;;;2.00;1.00;;;;;21.64;32.99;98446.78;5065342;27;45430;-76
2023/03/08 07:00:37;;;;;;;;;1.00;0.00;;;;;21.70;32.79;98453.28;5078479;27;46141;-76
2023/03/08 07:03:03;;;;;;;;;0.50;0.50;;;;;21.66;32.77;98449.28;5076396;28;45203;-76
2023/03/08 07:05:28;;;;;;;;;1.25;1.25;;;;;21.70;32.87;98437.31;5065085;28;45539;-75
2023/03/08 07:07:53;;;;;;;;;0.75;0.75;;;;;21.68;33.19;98444.63;5080441;27;58860;-81
2023/03/08 07:10:20;;;;;;;;;1.00;1.00;;;;;21.64;33.07;98436.16;5078069;27;71859;-81
2023/03/08 07:12:48;;;;;;;;;1.00;0.00;;;;;21.66;33.12;98436.81;5070152;28;46178;-81
2023/03/08 07:15:15;;;;;;;;;0.00;0.00;;;;;21.73;33.12;98451.09;5080725;27;45668;-80
2023/03/08 07:17:41;;;;;;;;;0.00;0.00;;;;;21.74;33.38;98446.59;5073870;27;45592;-82
2023/03/08 07:20:08;;;;;;;;;0.00;0.00;;;;;21.74;33.09;98441.28;5076319;27;47207;-82
2023/03/08 07:22:34;;;;;;;;;0.00;0.00;;;;;21.77;33.27;98440.94;5073318;27;45393;-82
2023/03/08 07:24:59;;;;;;;;;0.00;0.00;;;;;21.81;32.75;98431.59;5060958;28;45387;-82
2023/03/08 07:27:24;;;;;;;;;0.00;0.00;;;;;21.84;33.38;98436.59;5076265;28;60405;-83
2023/03/08 07:29:52;;;;;;;;;0.00;0.00;;;;;21.86;33.27;98439.09;5078979;28;70686;-82
2023/03/08 07:32:17;;;;;;;;;0.00;0.00;;;;;21.87;33.51;98438.94;5057094;28;45308;-82
2023/03/08 07:34:43;;;;;;;;;0.00;0.00;;;;;21.89;33.01;98444.09;5079047;28;66278;-83
2023/03/08 07:37:13;;;;;;;;;0.00;0.00;;;;;21.91;33.13;98444.75;5075449;27;45439;-83
2023/03/08 07:39:39;;;;;;;;;0.00;0.00;;;;;21.93;33.15;98446.22;5066182;28;46427;-82
2023/03/08 07:42:04;;;;;;;;;0.00;0.00;;;;;21.96;33.15;98464.53;5074067;27;45895;-83
2023/03/08 07:44:30;;;;;;;;;0.00;0.00;;;;;22.00;33.31;98457.84;5071983;27;67545;-82
2023/03/08 07:46:55;;;;;;;;;0.00;0.00;;;;;21.99;33.11;98461.53;5066260;28;45145;-82
2023/03/08 07:49:20;;;;;;;;;0.75;0.00;;;;;22.04;33.25;98462.84;5074421;28;71932;-81
2023/03/08 07:51:48;;;;;;;;;0.00;0.00;;;;;22.04;33.32;98466.34;5064348;27;75037;-82
2023/03/08 07:54:13;;;;;;;;;0.00;0.00;;;;;22.07;32.99;98468.66;5077119;27;45533;-82
2023/03/08 07:56:39;;;;;;;;;0.00;0.00;;;;;22.08;33.47;98453.50;5080727;27;62566;-82
2023/03/08 07:59:04;;;;;;;;;1.75;0.00;;;;;22.10;33.03;98457.66;5070951;27;45457;-83
2023/03/08 08:01:31;;;;;;;;;0.00;0.00;;;;;22.11;33.48;98459.31;5076427;27;73050;-82
2023/03/08 08:03:58;;;;;;;;;0.00;0.00;;;;;22.17;33.33;98455.16;5083402;27;45490;-83
2023/03/08 08:06:23;;;;;;;;;0.00;0.00;;;;;22.18;33.41;98473.59;5070696;27;45295;-80
2023/03/08 08:08:48;;;;;;;;;0.50;0.00;;;;;22.16;33.15;98470.28;5074788;27;45384;-80
2023/03/08 08:11:15;;;;;;;;;0.00;0.00;;;;;22.22;33.23;98479.44;5057084;28;51339;-80
2023/03/08 08:13:40;;;;;;;;;0.00;0.00;;;;;22.25;32.95;98486.25;5074331;27;45588;-80
2023/03/08 08:16:06;;;;;;;;;0.00;0.00;;;;;22.19;33.20;98482.44;5062949;28;46193;-83
2023/03/08 08:18:33;;;;;;;;;0.00;0.00;;;;;22.27;33.32;98497.59;5075002;27;45441;-83
2023/03/08 08:21:02;;;;;;;;;0.00;0.00;;;;;22.30;33.42;98486.59;5070162;28;45759;-82
2023/03/08 08:23:28;;;;;;;;;0.00;0.00;;;;;22.30;32.94;98481.28;5061147;28;45283;-81
2023/03/08 08:25:53;;;;;;;;;1.00;0.00;;;;;22.26;33.23;98485.28;5074779;27;45122;-81
2023/03/08 08:28:18;;;;;;;;;0.00;0.00;;;;;22.32;33.11;98484.59;5066353;27;46056;-81
2023/03/08 08:30:44;;;;;;;;;0.00;0.00;;;;;22.34;33.26;98480.75;5061340;27;71905;-81
2023/03/08 08:33:09;;;;;;;;;0.00;0.00;;;;;22.37;33.37;98479.59;5069057;28;59399;-82
2023/03/08 08:35:38;;;;;;;;;0.50;0.00;;;;;22.39;33.37;98490.06;5075478;28;62305;-82
2023/03/08 08:38:04;;;;;;;;;0.00;0.00;;;;;22.39;33.22;98485.56;5072512;28;45726;-82
2023/03/08 08:40:29;;;;;;;;;0.00;0.00;;;;;22.39;33.24;98496.22;5079381;27;69516;-81
2023/03/08 08:42:54;;;;;;;;;0.00;0.00;;;;;22.40;33.18;98489.91;5052710;28;55311;-82
2023/03/08 08:45:20;;;;;;;;;0.25;0.00;;;;;22.42;33.17;98495.91;5079268;27;45754;-81
2023/03/08 08:47:45;;;;;;;;;0.00;0.00;;;;;22.30;33.22;98489.28;5058795;28;66914;-81
2023/03/08 08:50:10;;;;;;;;;0.00;0.00;;;;;22.43;33.09;98504.72;5074459;28;72766;-81
2023/03/08 08:52:36;;;;;;;;;0.00;0.00;;;;;22.49;33.34;98512.03;5073220;28;58162;-81
2023/03/08 08:55:01;;;;;;;;;0.00;0.00;;;;;22.50;32.86;98524.34;5060216;28;71647;-82
2023/03/08 08:57:26;;;;;;;;;0.25;0.00;;;;;22.50;33.36;98522.50;5079901;27;45380;-82
2023/03/08 08:59:52;;;;;;;;;0.00;0.00;;;;;22.50;33.03;98521.66;5076095;27;45211;-82
2023/03/08 09:02:17;;;;;;;;;1.75;0.00;;;;;22.43;33.24;98502.88;5069069;27;68252;-82
2023/03/08 09:04:42;;;;;;;;;0.50;0.00;;;;;22.51;32.98;98516.16;5065163;27;45266;-81
2023/03/08 09:07:08;;;;;;;;;0.00;0.00;;;;;22.50;33.32;98516.34;5079194;28;62191;-82
2023/03/08 09:09:33;;;;;;;;;0.00;0.00;;;;;22.51;33.03;98515.34;5075468;28;45324;-82
2023/03/08 09:11:58;;;;;;;;;0.00;0.00;;;;;22.48;33.07;98505.03;5064069;28;45296;-82
2023/03/08 09:14:24;;;;;;;;;0.75;0.00;;;;;22.47;33.15;98506.03;5056825;28;67327;-82
2023/03/08 09:16:52;;;;;;;;;1.00;1.00;;;;;22.43;33.36;98494.88;5055043;28;46831;-81
2023/03/08 09:19:18;;;;;;;;;0.00;0.00;;;;;22.52;33.51;98506.34;5063189;27;45830;-81
2023/03/08 09:21:43;;;;;;;;;1.00;0.00;;;;;22.49;33.24;98506.69;5075366;28;45579;-81
2023/03/08 09:24:10;;;;;;;;;0.00;0.00;;;;;22.53;33.34;98510.69;5062266;27;45415;-81
2023/03/08 09:26:35;;;;;;;;;1.00;1.00;;;;;22.52;33.15;98517.00;5062366;27;45419;-81
2023/03/08 09:29:06;;;;;;;;;1.00;1.00;;;;;22.52;33.16;98520.50;5064098;27;71344;-80
2023/03/08 09:31:35;;;;;;;;;1.25;1.00;;;;;22.52;33.09;98522.31;5076413;27;45610;-81
2023/03/08 09:34:03;;;;;;;;;0.00;0.00;;;;;22.56;33.59;98531.66;5089936;27;45548;-81
2023/03/08 09:36:29;;;;;;;;;4.00;1.00;;;;;22.59;33.06;98523.28;5070924;27;45334;-81
2023/03/08 09:38:54;;;;;;;;;0.25;0.25;;;;;22.56;33.62;98527.16;5078055;27;45426;-81
2023/03/08 09:41:26;;;;;;;;;1.50;0.00;;;;;22.61;33.52;98526.66;5064963;28;45444;-80
2023/03/08 09:44:15;;;;;;;;;0.00;0.00;;;;;22.62;32.97;98525.63;5069434;27;45635;-81
2023/03/08 09:46:48;;;;;;;;;2.00;0.50;;;;;22.60;33.29;98522.31;5061254;28;47080;-80
2023/03/08 09:49:20;;;;;;;;;0.00;0.00;;;;;22.64;33.49;98528.94;5054687;28;45288;-80
2023/03/08 09:51:50;;;;;;;;;1.25;0.00;;;;;22.63;33.59;98521.97;5072998;28;45193;-81
2023/03/08 09:54:20;;;;;;;;;1.00;1.00;;;;;22.64;33.56;98526.28;5062231;28;45872;-81
2023/03/08 09:56:48;;;;;;;;;0.00;0.00;;;;;22.63;33.51;98529.97;5064276;28;46339;-80
2023/03/08 09:59:34;;;;;;;;;1.25;0.00;;;;;22.65;32.95;98535.94;5066108;27;45173;-80
2023/03/08 10:02:14;;;;;;;;;0.00;0.00;;;;;22.68;33.24;98548.94;5071979;28;45498;-80
2023/03/08 10:04:52;;;;;;;;;0.00;0.00;;;;;22.68;33.24;98532.09;5073886;27;45518;-81
2023/03/08 10:07:55;;;;;;;;;0.00;0.00;;;;;22.69;33.30;98557.75;5079289;27;46078;-81
2023/03/08 10:10:29;;;;;;;;;0.00;0.00;;;;;22.69;33.15;98561.25;5048760;28;45446;-80
2023/03/08 10:13:32;;;;;;;;;1.00;0.00;;;;;22.70;33.36;98562.94;5071004;28;45553;-80
2023/03/08 10:16:04;;;;;;;;;0.00;0.00;;;;;22.67;33.57;98557.94;5071216;27;45413;-80
2023/03/08 10:18:44;;;;;;;;;0.00;0.00;;;;;22.69;33.19;98561.25;5064204;28;45445;-81
2023/03/08 10:21:11;;;;;;;;;1.00;0.50;;;;;22.70;33.32;98562.06;5061637;27;45477;-80
2023/03/08 10:23:39;;;;;;;;;0.00;0.00;;;;;22.69;33.69;98552.44;5071421;27;45373;-80
2023/03/08 10:26:09;;;;;;;;;1.25;0.00;;;;;22.66;33.63;98548.25;5067242;27;45504;-80
2023/03/08 10:28:34;;;;;;;;;0.00;0.00;;;;;22.68;33.69;98545.41;5065706;28;46946;-80
2023/03/08 10:31:03;;;;;;;;;1.00;1.00;;;;;22.67;33.43;98538.44;5059673;28;64683;-81
2023/03/08 10:33:34;;;;;;;;;0.25;0.00;;;;;22.70;33.68;98546.94;5071871;28;45452;-81
2023/03/08 10:36:06;;;;;;;;;0.50;0.00;;;;;22.72;33.29;98555.59;5066934;28;45447;-80
2023/03/08 10:38:34;;;;;;;;;0.00;0.00;;;;;22.70;33.18;98549.59;5073982;28;45488;-81
2023/03/08 10:41:06;;;;;;;;;0.00;0.00;;;;;22.73;33.78;98556.41;5046212;28;45874;-81
2023/03/08 10:43:35;;;;;;;;;0.00;0.00;;;;;22.73;33.54;98559.06;5068304;27;45544;-81
2023/03/08 10:46:04;;;;;;;;;0.00;0.00;;;;;22.77;33.27;98567.56;5066197;28;45442;-81
2023/03/08 10:48:29;;;;;;;;;0.00;0.00;;;;;22.76;33.23;98556.06;5056817;28;47658;-81
2023/03/08 10:51:00;;;;;;;;;0.00;0.00;;;;;22.80;33.33;98564.56;5066468;28;45402;-81
2023/03/08 10:53:28;;;;;;;;;0.00;0.00;;;;;22.78;33.43;98570.06;5078381;28;45303;-81
2023/03/08 10:55:54;;;;;;;;;1.00;0.00;;;;;22.82;33.27;98579.34;5069925;27;45279;-81
2023/03/08 10:58:33;;;;;;;;;0.25;0.00;;;;;22.82;33.66;98574.03;5060759;28;45477;-81
2023/03/08 11:01:03;;;;;;;;;2.25;0.00;;;;;22.85;33.37;98586.19;5074991;27;45860;-81
2023/03/08 11:03:28;;;;;;;;;0.00;0.00;;;;;22.83;33.55;98583.69;5059707;27;45386;-81
2023/03/08 11:06:10;;;;;;;;;3.50;1.00;;;;;22.87;33.18;98578.84;5069055;28;45296;-81
2023/03/08 11:08:38;;;;;;;;;1.00;0.00;;;;;22.83;33.79;98577.53;5068182;28;48266;-81
2023/03/08 11:11:09;;;;;;;;;0.00;0.00;;;;;22.86;33.31;98583.38;5066280;28;45230;-80
2023/03/08 11:13:40;;;;;;;;;1.25;0.00;;;;;22.88;33.28;98586.69;5061915;28;45386;-80
2023/03/08 11:16:30;;;;;;;;;0.00;0.00;;;;;22.88;33.53;98588.53;5063445;27;45593;-81
2023/03/08 11:19:04;;;;;;;;;0.00;0.00;;;;;22.89;33.79;98585.66;5064731;27;46215;-80
2023/03/08 11:21:55;;;;;;;;;2.00;2.00;;;;;22.89;33.44;98579.50;5071800;28;45909;-81
2023/03/08 11:24:48;;;;;;;;;1.25;0.25;;;;;22.85;33.60;98576.34;5068020;27;45344;-81
2023/03/08 11:27:22;;;;;;;;;1.00;1.00;;;;;22.88;33.48;98578.69;5071160;28;45268;-81
2023/03/08 11:30:09;;;;;;;;;1.00;0.75;;;;;22.88;33.54;98576.00;5068885;28;45429;-82
2023/03/08 11:32:52;;;;;;;;;0.00;0.00;;;;;22.89;33.80;98580.31;5080977;27;45275;-81
2023/03/08 11:35:45;;;;;;;;;1.00;1.00;;;;;22.88;33.43;98575.19;5073347;27;45243;-81
2023/03/08 11:38:23;;;;;;;;;0.00;0.00;;;;;22.86;33.19;98570.03;5057081;27;45371;-81